createdAt,value
2018-03-20T00:00:41.197Z,40.30
2018-03-20T00:03:09.465Z,40.20
2018-03-20T00:05:37.724Z,40.20
2018-03-20T00:08:05.966Z,40.30
2018-03-20T00:10:34.205Z,39.80
2018-03-20T00:13:02.477Z,40.00
2018-03-20T00:15:31.188Z,39.70
2018-03-20T00:18:00.232Z,41.10
2018-03-20T00:20:28.540Z,41.00
2018-03-20T00:22:56.901Z,40.30
2018-03-20T00:25:25.145Z,40.30
2018-03-20T00:27:53.422Z,39.60
2018-03-20T00:30:21.652Z,40.10
2018-03-20T00:32:49.896Z,40.70
2018-03-20T00:35:18.224Z,40.80
2018-03-20T00:37:47.225Z,40.80
2018-03-20T00:40:16.229Z,40.80
2018-03-20T00:42:44.936Z,40.70
2018-03-20T00:45:13.180Z,40.20
2018-03-20T00:47:41.701Z,40.50
2018-03-20T00:50:09.969Z,39.70
2018-03-20T00:52:38.380Z,40.30
2018-03-20T00:55:06.621Z,39.70
2018-03-20T00:57:34.904Z,39.90
2018-03-20T01:00:03.161Z,40.10
2018-03-20T01:02:31.416Z,40.70
2018-03-20T01:05:00.965Z,40.20
2018-03-20T01:07:29.230Z,40.20
2018-03-20T01:09:57.473Z,40.30
2018-03-20T01:12:25.797Z,40.10
2018-03-20T01:14:54.036Z,40.00
2018-03-20T01:17:22.553Z,40.40
2018-03-20T01:19:50.894Z,40.70
2018-03-20T01:22:19.892Z,41.10
2018-03-20T01:24:48.907Z,41.10
2018-03-20T01:27:17.553Z,41.00
2018-03-20T01:29:45.984Z,41.40
2018-03-20T01:32:14.232Z,41.70
2018-03-20T01:34:42.496Z,41.10
2018-03-20T01:37:10.741Z,41.30
2018-03-20T01:39:38.981Z,40.90
2018-03-20T01:42:07.241Z,40.60
2018-03-20T01:44:35.649Z,41.00
2018-03-20T01:47:03.896Z,40.90
2018-03-20T01:49:32.865Z,41.10
2018-03-20T01:52:01.096Z,40.50
2018-03-20T01:54:29.332Z,40.20
2018-03-20T01:56:57.596Z,41.40
2018-03-20T01:59:25.872Z,41.90
2018-03-20T02:01:54.108Z,41.70
2018-03-20T02:04:22.372Z,42.50
2018-03-20T02:06:50.617Z,41.20
2018-03-20T02:09:19.140Z,41.60
2018-03-20T02:11:48.129Z,42.30
2018-03-20T02:14:16.404Z,41.70
2018-03-20T02:16:44.620Z,42.60
2018-03-20T02:19:13.241Z,42.20
2018-03-20T02:21:41.499Z,42.50
2018-03-20T02:24:09.725Z,42.40
2018-03-20T02:26:37.985Z,41.30
2018-03-20T02:29:06.223Z,42.20
2018-03-20T02:31:34.552Z,42.10
2018-03-20T02:34:03.236Z,41.60
2018-03-20T02:36:31.480Z,40.90
2018-03-20T02:38:59.717Z,41.80
2018-03-20T02:41:28.069Z,41.10
2018-03-20T02:43:56.400Z,42.50
2018-03-20T02:46:25.417Z,43.50
2018-03-20T02:48:53.681Z,43.40
2018-03-20T02:51:21.932Z,42.40
2018-03-20T02:53:51.111Z,42.10
2018-03-20T02:56:19.569Z,41.90
2018-03-20T02:58:47.881Z,42.00
2018-03-20T03:01:16.121Z,41.70
2018-03-20T03:03:44.420Z,42.20
2018-03-20T03:06:12.662Z,42.30
2018-03-20T03:08:40.911Z,43.60
2018-03-20T03:11:09.252Z,43.60
2018-03-20T03:13:37.494Z,43.00
2018-03-20T03:16:05.738Z,41.60
2018-03-20T03:18:34.166Z,42.50
2018-03-20T03:21:03.014Z,41.70
2018-03-20T03:23:32.025Z,43.10
2018-03-20T03:26:00.301Z,43.10
2018-03-20T03:28:28.552Z,42.00
2018-03-20T03:30:56.801Z,42.30
2018-03-20T03:33:25.072Z,43.10
2018-03-20T03:35:53.321Z,42.60
2018-03-20T03:38:21.578Z,42.20
2018-03-20T03:40:50.093Z,43.30
2018-03-20T03:43:18.340Z,43.10
2018-03-20T03:45:46.588Z,42.70
2018-03-20T03:48:14.923Z,42.30
2018-03-20T03:50:43.164Z,44.90
2018-03-20T03:53:11.425Z,44.20
2018-03-20T03:55:40.457Z,44.10
2018-03-20T03:58:08.744Z,44.10
2018-03-20T04:00:36.988Z,44.70
2018-03-20T04:03:05.500Z,43.80
2018-03-20T04:05:33.812Z,43.90
2018-03-20T04:08:02.057Z,44.10
2018-03-20T04:10:30.324Z,43.90
2018-03-20T04:12:58.564Z,43.30
2018-03-20T04:15:26.809Z,44.40
2018-03-20T04:17:55.073Z,44.50
2018-03-20T04:20:23.329Z,43.80
2018-03-20T04:22:51.872Z,44.30
2018-03-20T04:25:20.300Z,44.70
2018-03-20T04:27:48.545Z,45.90
2018-03-20T04:30:16.789Z,45.70
2018-03-20T04:32:45.057Z,45.90
2018-03-20T04:35:13.309Z,45.40
2018-03-20T04:37:41.557Z,46.00
2018-03-20T04:40:10.601Z,46.20
2018-03-20T04:42:38.848Z,46.20
2018-03-20T04:45:07.109Z,46.10
2018-03-20T04:47:35.440Z,45.90
2018-03-20T04:50:03.687Z,44.70
2018-03-20T04:52:31.928Z,44.20
2018-03-20T04:55:01.426Z,44.10
2018-03-20T04:57:30.433Z,45.40
2018-03-20T04:59:58.677Z,45.30
2018-03-20T05:02:26.947Z,45.70
2018-03-20T05:04:55.192Z,47.20
2018-03-20T05:07:23.443Z,46.80
2018-03-20T05:09:52.073Z,45.80
2018-03-20T05:12:20.428Z,45.90
2018-03-20T05:14:48.677Z,45.20
2018-03-20T05:17:16.947Z,45.40
2018-03-20T05:20:05.050Z,45.20
2018-03-20T05:22:38.901Z,45.20
2018-03-20T05:25:07.780Z,46.80
2018-03-20T05:27:36.797Z,46.00
2018-03-20T05:30:05.137Z,45.90
2018-03-20T05:32:33.380Z,46.00
2018-03-20T05:35:01.629Z,45.70
2018-03-20T05:37:29.905Z,46.20
2018-03-20T05:39:58.156Z,46.40
2018-03-20T05:42:26.402Z,46.70
2018-03-20T05:44:54.672Z,46.90
2018-03-20T05:47:28.615Z,47.30
2018-03-20T05:50:15.846Z,46.70
2018-03-20T05:52:44.852Z,46.60
2018-03-20T05:55:13.248Z,46.60
2018-03-20T05:57:41.624Z,46.30
2018-03-20T06:00:09.869Z,46.00
2018-03-20T06:02:38.111Z,47.00
2018-03-20T06:05:06.380Z,46.50
2018-03-20T06:07:34.629Z,46.20
2018-03-20T06:10:02.879Z,46.30
2018-03-20T06:12:32.240Z,44.90
2018-03-20T06:15:00.522Z,44.90
2018-03-20T06:17:28.761Z,45.50
2018-03-20T06:19:57.361Z,45.30
2018-03-20T06:22:25.605Z,45.50
2018-03-20T06:24:53.867Z,45.30
2018-03-20T06:27:23.401Z,44.50
2018-03-20T06:29:51.648Z,44.40
2018-03-20T06:32:19.893Z,44.30
2018-03-20T06:34:48.864Z,44.30
2018-03-20T06:37:17.108Z,44.60
2018-03-20T06:39:45.358Z,44.50
2018-03-20T06:42:14.417Z,44.00
2018-03-20T06:44:42.661Z,44.00
2018-03-20T06:47:10.912Z,44.30
2018-03-20T06:49:39.203Z,44.40
2018-03-20T06:52:07.441Z,44.60
2018-03-20T06:54:35.697Z,44.90
2018-03-20T06:57:04.400Z,44.90
2018-03-20T06:59:32.635Z,45.00
2018-03-20T07:02:00.880Z,45.00
2018-03-20T07:04:29.160Z,44.60
2018-03-20T07:06:57.404Z,44.70
2018-03-20T07:09:25.714Z,44.40
2018-03-20T07:11:53.942Z,43.80
2018-03-20T07:14:22.195Z,43.30
2018-03-20T07:16:50.440Z,42.50
2018-03-20T07:19:19.385Z,42.30
2018-03-20T07:21:47.633Z,42.20
2018-03-20T07:24:15.872Z,42.10
2018-03-20T07:26:44.132Z,41.70
2018-03-20T07:29:12.861Z,41.60
2018-03-20T07:31:41.873Z,41.60
2018-03-20T07:34:10.130Z,41.60
2018-03-20T07:36:38.372Z,41.80
2018-03-20T07:39:06.613Z,41.90
2018-03-20T07:41:35.413Z,41.90
2018-03-20T07:44:03.749Z,42.20
2018-03-20T07:46:32.766Z,41.80
2018-03-20T07:49:01.021Z,41.70
2018-03-20T07:51:29.256Z,41.70
2018-03-20T07:53:57.502Z,40.90
2018-03-20T07:56:25.991Z,40.80
2018-03-20T07:58:54.169Z,40.60
2018-03-20T08:01:22.569Z,40.40
2018-03-20T08:03:51.124Z,40.30
2018-03-20T08:06:19.360Z,39.30
2018-03-20T08:08:47.601Z,39.40
2018-03-20T08:11:15.852Z,39.80
2018-03-20T08:13:44.138Z,40.00
2018-03-20T08:16:12.329Z,39.70
2018-03-20T08:18:40.585Z,39.40
2018-03-20T08:21:08.812Z,39.50
2018-03-20T08:23:37.040Z,38.00
2018-03-20T08:26:05.628Z,37.00
2018-03-20T08:28:33.862Z,37.20
2018-03-20T08:31:03.567Z,37.10
2018-03-20T08:33:32.586Z,37.30
2018-03-20T08:36:00.834Z,37.20
2018-03-20T08:38:29.061Z,37.40
2018-03-20T08:40:57.332Z,37.00
2018-03-20T08:43:25.566Z,37.30
2018-03-20T08:45:53.805Z,36.70
2018-03-20T08:48:22.245Z,35.70
2018-03-20T08:50:51.260Z,36.30
2018-03-20T08:53:19.553Z,35.70
2018-03-20T08:55:48.072Z,35.70
2018-03-20T08:58:16.312Z,36.00
2018-03-20T09:00:44.553Z,35.50
2018-03-20T09:03:12.811Z,35.10
2018-03-20T09:05:41.810Z,35.30
2018-03-20T09:08:10.811Z,35.10
2018-03-20T09:10:39.297Z,35.10
2018-03-20T09:13:07.534Z,35.40
2018-03-20T09:15:35.981Z,35.80
2018-03-20T09:18:04.230Z,35.70
2018-03-20T09:20:32.480Z,36.40
2018-03-20T09:23:00.701Z,36.00
2018-03-20T09:25:28.960Z,36.20
2018-03-20T09:27:57.212Z,36.40
2018-03-20T09:30:26.217Z,37.40
2018-03-20T09:32:55.863Z,37.50
2018-03-20T09:35:24.092Z,37.40
2018-03-20T09:37:52.326Z,37.00
2018-03-20T09:40:20.581Z,37.20
2018-03-20T09:42:48.817Z,37.50
2018-03-20T09:45:17.052Z,37.80
2018-03-20T09:47:45.308Z,38.50
2018-03-20T09:50:13.533Z,38.90
2018-03-20T09:52:41.764Z,39.40
2018-03-20T09:55:10.078Z,41.40
2018-03-20T09:57:38.314Z,41.90
2018-03-20T10:00:06.553Z,44.20
2018-03-20T10:02:35.565Z,47.40
2018-03-20T10:05:03.861Z,47.40
2018-03-20T10:07:32.162Z,48.80
2018-03-20T10:10:00.422Z,49.90
2018-03-20T10:12:28.681Z,50.10
2018-03-20T10:14:56.909Z,49.80
2018-03-20T10:17:25.449Z,50.00
2018-03-20T10:19:53.677Z,50.50
2018-03-20T10:22:21.955Z,50.30
2018-03-20T10:24:50.189Z,50.90
2018-03-20T10:27:18.418Z,51.70
2018-03-20T10:29:46.654Z,52.00
2018-03-20T10:32:14.914Z,51.70
2018-03-20T10:34:43.462Z,52.50
2018-03-20T10:37:12.469Z,53.60
2018-03-20T10:39:41.235Z,53.60
2018-03-20T10:42:10.241Z,53.60
2018-03-20T10:44:38.474Z,53.60
2018-03-20T10:47:06.739Z,53.80
2018-03-20T10:49:35.015Z,54.70
2018-03-20T10:52:03.244Z,55.60
2018-03-20T10:54:31.501Z,56.50
2018-03-20T10:57:00.509Z,57.00
2018-03-20T10:59:28.741Z,57.00
2018-03-20T11:02:02.749Z,57.10
2018-03-20T11:04:30.973Z,57.00
2018-03-20T11:06:59.200Z,56.70
2018-03-20T11:09:27.459Z,57.30
2018-03-20T11:11:55.697Z,57.00
2018-03-20T11:14:23.929Z,56.40
2018-03-20T11:16:52.328Z,56.10
2018-03-20T11:19:20.569Z,54.90
2018-03-20T11:21:48.803Z,54.10
2018-03-20T11:24:18.186Z,53.10
2018-03-20T11:26:46.505Z,53.00
2018-03-20T11:29:14.741Z,52.80
2018-03-20T11:31:43.000Z,52.50
2018-03-20T11:34:11.229Z,52.30
2018-03-20T11:36:39.952Z,51.90
2018-03-20T11:39:08.204Z,51.80
2018-03-20T11:41:36.457Z,51.70
2018-03-20T11:44:05.471Z,51.50
2018-03-20T11:46:33.866Z,51.40
2018-03-20T11:49:02.106Z,51.30
2018-03-20T11:51:30.331Z,50.80
2018-03-20T11:53:58.584Z,50.90
2018-03-20T11:56:26.825Z,50.80
2018-03-20T11:58:55.088Z,50.50
2018-03-20T12:01:23.348Z,50.80
2018-03-20T12:03:51.669Z,51.00
2018-03-20T12:06:20.651Z,51.00
2018-03-20T12:08:51.729Z,51.00
2018-03-20T12:11:20.238Z,51.10
2018-03-20T12:13:48.548Z,51.20
2018-03-20T12:16:16.808Z,51.60
2018-03-20T12:18:45.062Z,52.00
2018-03-20T12:21:13.292Z,52.40
2018-03-20T12:23:42.341Z,52.40
2018-03-20T12:26:10.724Z,52.30
2018-03-20T12:28:38.980Z,52.80
2018-03-20T12:31:07.451Z,52.80
2018-03-20T12:33:35.677Z,53.10
2018-03-20T12:36:03.919Z,53.40
2018-03-20T12:38:32.585Z,53.40
2018-03-20T12:41:00.825Z,53.80
2018-03-20T12:43:29.066Z,54.00
2018-03-20T12:45:57.428Z,54.50
2018-03-20T12:48:25.648Z,54.70
2018-03-20T12:50:53.884Z,54.40
2018-03-20T12:53:22.377Z,54.20
2018-03-20T12:55:50.606Z,54.40
2018-03-20T12:58:19.600Z,55.00
2018-03-20T13:00:48.001Z,54.90
2018-03-20T13:03:16.265Z,55.00
2018-03-20T13:05:44.496Z,54.90
2018-03-20T13:08:12.753Z,54.50
2018-03-20T13:10:40.983Z,54.70
2018-03-20T13:13:09.223Z,54.80
2018-03-20T13:15:37.982Z,54.40
2018-03-20T13:18:06.373Z,54.30
2018-03-20T13:20:34.600Z,54.30
2018-03-20T13:23:02.852Z,54.40
2018-03-20T13:25:31.098Z,54.60
2018-03-20T13:27:59.338Z,54.60
2018-03-20T13:30:27.634Z,54.80
2018-03-20T13:32:55.861Z,54.90
2018-03-20T13:35:24.088Z,54.80
2018-03-20T13:37:52.897Z,55.00
2018-03-20T13:40:21.422Z,55.30
2018-03-20T13:42:50.424Z,55.70
2018-03-20T13:45:18.684Z,55.60
2018-03-20T13:47:46.920Z,55.90
2018-03-20T13:50:15.190Z,56.00
2018-03-20T13:52:49.132Z,56.30
2018-03-20T13:55:11.968Z,56.30
2018-03-20T13:57:42.182Z,56.20
2018-03-20T14:00:10.945Z,56.40
2018-03-20T14:02:39.213Z,56.50
2018-03-20T14:05:07.453Z,56.60
2018-03-20T14:07:35.716Z,57.00
2018-03-20T14:10:03.950Z,56.60
2018-03-20T14:12:32.193Z,57.00
2018-03-20T14:15:01.256Z,57.20
2018-03-20T14:17:29.528Z,57.20
2018-03-20T14:19:57.761Z,57.30
2018-03-20T14:22:26.370Z,57.10
2018-03-20T14:24:54.742Z,57.40
2018-03-20T14:27:22.981Z,57.30
2018-03-20T14:29:51.260Z,57.40
2018-03-20T14:32:19.967Z,57.60
2018-03-20T14:34:49.266Z,57.60
2018-03-20T14:37:17.546Z,58.00
2018-03-20T14:39:46.537Z,57.80
2018-03-20T14:42:15.851Z,57.80
2018-03-20T14:44:44.229Z,57.80
2018-03-20T14:47:12.461Z,57.70
2018-03-20T14:49:40.689Z,57.60
2018-03-20T14:52:09.068Z,58.00
2018-03-20T14:54:37.301Z,57.70
2018-03-20T14:57:05.540Z,58.70
2018-03-20T14:59:33.793Z,58.10
2018-03-20T15:02:02.021Z,58.40
2018-03-20T15:04:30.269Z,58.50
2018-03-20T15:06:59.033Z,58.40
2018-03-20T15:09:27.269Z,59.30
2018-03-20T15:11:55.517Z,60.10
2018-03-20T15:14:23.804Z,60.00
2018-03-20T15:16:52.040Z,60.20
2018-03-20T15:19:20.276Z,60.90
2018-03-20T15:21:49.304Z,61.40
2018-03-20T15:24:17.623Z,61.30
2018-03-20T15:26:45.865Z,60.60
2018-03-20T15:29:14.525Z,61.30
2018-03-20T15:31:42.733Z,62.50
2018-03-20T15:34:10.961Z,61.60
2018-03-20T15:36:39.229Z,63.40
2018-03-20T15:39:08.232Z,61.90
2018-03-20T15:41:37.257Z,63.20
2018-03-20T15:44:05.952Z,63.10
2018-03-20T15:46:34.216Z,62.60
2018-03-20T15:49:02.498Z,61.70
2018-03-20T15:51:30.805Z,63.50
2018-03-20T15:53:59.124Z,63.20
2018-03-20T15:56:28.284Z,62.00
2018-03-20T15:58:56.629Z,62.00
2018-03-20T16:01:24.866Z,61.90
2018-03-20T16:03:53.903Z,63.00
2018-03-20T16:06:22.257Z,62.90
2018-03-20T16:08:51.238Z,62.70
2018-03-20T16:11:20.265Z,62.30
2018-03-20T16:13:48.736Z,62.20
2018-03-20T16:16:16.967Z,62.80
2018-03-20T16:18:45.444Z,61.10
2018-03-20T16:21:13.916Z,63.60
2018-03-20T16:23:42.152Z,64.20
2018-03-20T16:26:10.402Z,63.60
2018-03-20T16:28:38.669Z,62.30
2018-03-20T16:31:07.125Z,64.50
2018-03-20T16:33:35.347Z,64.00
2018-03-20T16:36:04.677Z,60.30
2018-03-20T16:38:32.913Z,60.20
2018-03-20T16:41:01.260Z,63.60
2018-03-20T16:43:29.512Z,62.70
2018-03-20T16:45:58.013Z,59.80
2018-03-20T16:48:26.225Z,61.80
2018-03-20T16:50:55.261Z,61.40
2018-03-20T16:53:23.484Z,61.30
2018-03-20T16:55:52.147Z,63.20
2018-03-20T16:58:21.104Z,62.10
2018-03-20T17:00:49.324Z,64.60
2018-03-20T17:03:17.764Z,65.00
2018-03-20T17:05:46.026Z,63.50
2018-03-20T17:08:14.256Z,62.70
2018-03-20T17:10:42.731Z,61.10
2018-03-20T17:13:11.152Z,60.40
2018-03-20T17:15:39.375Z,63.10
2018-03-20T17:18:07.629Z,63.50
2018-03-20T17:20:35.948Z,61.90
2018-03-20T17:23:04.182Z,65.00
2018-03-20T17:25:32.553Z,63.70
2018-03-20T17:28:00.937Z,63.10
2018-03-20T17:30:29.243Z,61.40
2018-03-20T17:32:57.473Z,61.30
2018-03-20T17:35:28.230Z,61.80
2018-03-20T17:37:56.536Z,61.10
2018-03-20T17:40:24.977Z,61.40
2018-03-20T17:42:53.812Z,60.40
2018-03-20T17:45:22.584Z,63.10
2018-03-20T17:47:50.822Z,63.70
2018-03-20T17:50:19.824Z,62.90
2018-03-20T17:52:48.057Z,62.30
2018-03-20T17:55:16.357Z,61.40
2018-03-20T17:57:44.593Z,60.80
2018-03-20T18:00:12.825Z,62.60
2018-03-20T18:02:41.293Z,61.10
2018-03-20T18:05:10.357Z,61.00
2018-03-20T18:07:38.585Z,60.90
2018-03-20T18:10:06.817Z,60.30
2018-03-20T18:12:35.073Z,61.00
2018-03-20T18:15:03.340Z,61.70
2018-03-20T18:17:31.564Z,61.30
2018-03-20T18:20:00.594Z,59.80
2018-03-20T18:22:28.836Z,59.70
2018-03-20T18:24:57.057Z,59.60
2018-03-20T18:27:25.369Z,59.20
2018-03-20T18:29:53.596Z,58.70
2018-03-20T18:32:23.195Z,58.70
2018-03-20T18:34:51.700Z,58.20
2018-03-20T18:37:19.929Z,57.90
2018-03-20T18:39:48.160Z,57.90
2018-03-20T18:42:16.413Z,57.20
2018-03-20T18:44:45.368Z,57.50
2018-03-20T18:47:14.534Z,57.60
2018-03-20T18:49:43.293Z,57.30
2018-03-20T18:52:11.855Z,57.50
2018-03-20T18:54:40.081Z,57.40
2018-03-20T18:57:08.458Z,57.20
2018-03-20T18:59:36.664Z,57.60
2018-03-20T19:02:05.115Z,57.60
2018-03-20T19:04:33.572Z,56.90
2018-03-20T19:07:01.821Z,56.90
2018-03-20T19:09:30.401Z,57.10
2018-03-20T19:11:59.016Z,56.90
2018-03-20T19:14:27.360Z,57.70
2018-03-20T19:16:56.356Z,56.30
2018-03-20T19:19:25.527Z,56.50
2018-03-20T19:21:53.730Z,56.40
2018-03-20T19:24:22.757Z,56.70
2018-03-20T19:26:51.008Z,56.60
2018-03-20T19:29:19.519Z,56.50
2018-03-20T19:31:47.765Z,57.00
2018-03-20T19:34:16.273Z,56.80
2018-03-20T19:36:44.585Z,57.20
2018-03-20T19:39:12.820Z,57.00
2018-03-20T19:41:41.073Z,57.20
2018-03-20T19:44:10.068Z,57.10
2018-03-20T19:46:39.628Z,57.30
2018-03-20T19:49:07.882Z,57.30
2018-03-20T19:51:36.338Z,56.40
2018-03-20T19:54:04.765Z,56.60
2018-03-20T19:56:33.227Z,56.60
2018-03-20T19:59:01.522Z,56.60
2018-03-20T20:01:29.902Z,56.20
2018-03-20T20:03:58.152Z,56.00
2018-03-20T20:06:27.788Z,56.60
2018-03-20T20:08:56.012Z,55.60
2018-03-20T20:11:25.033Z,55.60
2018-03-20T20:13:53.641Z,55.60
2018-03-20T20:16:22.021Z,55.50
2018-03-20T20:18:50.324Z,56.70
2018-03-20T20:21:18.579Z,57.30
2018-03-20T20:23:46.851Z,56.70
2018-03-20T20:26:15.261Z,57.10
2018-03-20T20:28:43.608Z,56.90
2018-03-20T20:31:11.845Z,57.20
2018-03-20T20:33:40.106Z,55.70
2018-03-20T20:36:09.104Z,56.10
2018-03-20T20:38:38.100Z,56.50
2018-03-20T20:41:07.451Z,56.20
2018-03-20T20:43:35.721Z,56.10
2018-03-20T20:46:04.106Z,56.20
2018-03-20T20:48:32.364Z,56.10
2018-03-20T20:51:00.592Z,57.50
2018-03-20T20:53:32.952Z,57.10
2018-03-20T20:56:01.193Z,57.00
2018-03-20T20:58:29.426Z,57.00
2018-03-20T21:00:58.488Z,57.10
2018-03-20T21:03:26.776Z,57.00
2018-03-20T21:05:55.008Z,56.60
2018-03-20T21:08:23.270Z,57.00
2018-03-20T21:10:51.586Z,58.20
2018-03-20T21:13:19.812Z,57.50
2018-03-20T21:15:48.068Z,56.80
2018-03-20T21:18:16.415Z,56.60
2018-03-20T21:20:48.472Z,56.40
2018-03-20T21:23:17.249Z,56.90
2018-03-20T21:25:47.684Z,57.50
2018-03-20T21:28:16.998Z,57.00
2018-03-20T21:30:45.449Z,57.10
2018-03-20T21:33:13.848Z,57.20
2018-03-20T21:35:42.221Z,57.30
2018-03-20T21:38:10.497Z,57.20
2018-03-20T21:40:38.733Z,57.50
2018-03-20T21:43:07.057Z,57.00
2018-03-20T21:45:36.044Z,57.40
2018-03-20T21:48:04.729Z,57.30
2018-03-20T21:50:32.957Z,57.20
2018-03-20T21:53:01.223Z,57.70
2018-03-20T21:55:29.460Z,57.60
2018-03-20T21:57:58.062Z,57.90
2018-03-20T22:00:26.336Z,58.20
2018-03-20T22:02:54.614Z,58.70
2018-03-20T22:05:22.836Z,57.90
2018-03-20T22:07:51.145Z,58.10
2018-03-20T22:10:19.376Z,57.80
2018-03-20T22:12:47.605Z,58.00
2018-03-20T22:15:15.862Z,58.00
2018-03-20T22:17:44.093Z,58.90
2018-03-20T22:20:12.312Z,58.50
2018-03-20T22:22:40.760Z,58.10
2018-03-20T22:25:08.993Z,58.40
2018-03-20T22:27:37.224Z,58.00
2018-03-20T22:30:06.318Z,57.90
2018-03-20T22:32:34.553Z,57.90
2018-03-20T22:35:02.787Z,58.00
2018-03-20T22:37:31.044Z,58.20
2018-03-20T22:39:59.260Z,58.40
2018-03-20T22:42:27.494Z,58.30
2018-03-20T22:44:56.514Z,59.00
2018-03-20T22:47:24.756Z,59.00
2018-03-20T22:49:53.544Z,58.70
2018-03-20T22:52:21.982Z,58.20
2018-03-20T22:54:50.300Z,58.70
2018-03-20T22:57:18.533Z,58.60
2018-03-20T22:59:46.783Z,59.00
2018-03-20T23:02:15.024Z,57.70
2018-03-20T23:04:43.489Z,57.70
2018-03-20T23:07:11.885Z,58.00
2018-03-20T23:09:40.142Z,60.10
2018-03-20T23:12:08.369Z,58.50
2018-03-20T23:14:37.080Z,58.00
2018-03-20T23:17:05.341Z,58.00
2018-03-20T23:19:33.849Z,58.00
2018-03-20T23:22:02.104Z,57.80
2018-03-20T23:24:30.348Z,58.10
2018-03-20T23:26:58.586Z,59.10
2018-03-20T23:29:26.836Z,58.40
2018-03-20T23:31:55.064Z,58.30
2018-03-20T23:34:23.422Z,58.40
2018-03-20T23:36:51.872Z,58.40
2018-03-20T23:39:20.189Z,58.00
2018-03-20T23:41:48.417Z,58.10
2018-03-20T23:44:16.668Z,58.30
2018-03-20T23:46:45.661Z,59.50
2018-03-20T23:49:14.667Z,58.60
2018-03-20T23:51:43.979Z,58.90
2018-03-20T23:54:12.386Z,58.90
2018-03-20T23:56:42.835Z,59.70
2018-03-20T23:59:11.585Z,59.80
